sensor_id;sensor_type;location;lat;lon;timestamp;P1;durP1;ratioP1;P2;durP2;ratioP2
84125;SDS011;74222;58.696;11.254;2023-12-28T00:00:48;0.90;;;0.90;;
84125;SDS011;74222;58.696;11.254;2023-12-28T00:03:14;0.80;;;0.80;;
84125;SDS011;74222;58.696;11.254;2023-12-28T00:05:41;0.50;;;0.50;;
84125;SDS011;74222;58.696;11.254;2023-12-28T00:08:07;0.60;;;0.60;;
84125;SDS011;74222;58.696;11.254;2023-12-28T00:10:34;0.70;;;0.70;;
84125;SDS011;74222;58.696;11.254;2023-12-28T00:13:00;0.60;;;0.60;;
84125;SDS011;74222;58.696;11.254;2023-12-28T00:15:27;0.60;;;0.60;;
84125;SDS011;74222;58.696;11.254;2023-12-28T00:17:53;0.90;;;0.90;;
84125;SDS011;74222;58.696;11.254;2023-12-28T00:20:20;0.77;;;0.77;;
84125;SDS011;74222;58.696;11.254;2023-12-28T00:22:46;0.97;;;0.97;;
84125;SDS011;74222;58.696;11.254;2023-12-28T00:25:13;0.70;;;0.70;;
84125;SDS011;74222;58.696;11.254;2023-12-28T00:27:39;0.90;;;0.90;;
84125;SDS011;74222;58.696;11.254;2023-12-28T00:30:06;0.60;;;0.60;;
84125;SDS011;74222;58.696;11.254;2023-12-28T00:32:33;0.70;;;0.70;;
84125;SDS011;74222;58.696;11.254;2023-12-28T00:34:59;0.70;;;0.70;;
84125;SDS011;74222;58.696;11.254;2023-12-28T00:37:26;0.70;;;0.70;;
84125;SDS011;74222;58.696;11.254;2023-12-28T00:39:52;0.70;;;0.63;;
84125;SDS011;74222;58.696;11.254;2023-12-28T00:42:19;0.70;;;0.70;;
84125;SDS011;74222;58.696;11.254;2023-12-28T00:44:45;0.60;;;0.60;;
84125;SDS011;74222;58.696;11.254;2023-12-28T00:47:12;0.60;;;0.60;;
84125;SDS011;74222;58.696;11.254;2023-12-28T00:49:38;0.60;;;0.60;;
84125;SDS011;74222;58.696;11.254;2023-12-28T00:52:05;0.50;;;0.50;;
84125;SDS011;74222;58.696;11.254;2023-12-28T00:54:31;0.83;;;0.83;;
84125;SDS011;74222;58.696;11.254;2023-12-28T00:56:58;0.60;;;0.60;;
84125;SDS011;74222;58.696;11.254;2023-12-28T00:59:24;0.77;;;0.77;;
84125;SDS011;74222;58.696;11.254;2023-12-28T01:01:51;0.67;;;0.67;;
84125;SDS011;74222;58.696;11.254;2023-12-28T01:04:17;0.67;;;0.67;;
84125;SDS011;74222;58.696;11.254;2023-12-28T01:06:44;0.73;;;0.73;;
84125;SDS011;74222;58.696;11.254;2023-12-28T01:09:10;0.80;;;0.80;;
84125;SDS011;74222;58.696;11.254;2023-12-28T01:11:37;0.70;;;0.70;;
84125;SDS011;74222;58.696;11.254;2023-12-28T01:14:03;0.80;;;0.80;;
84125;SDS011;74222;58.696;11.254;2023-12-28T01:16:30;0.90;;;0.90;;
84125;SDS011;74222;58.696;11.254;2023-12-28T01:18:56;0.60;;;0.60;;
84125;SDS011;74222;58.696;11.254;2023-12-28T01:21:23;0.73;;;0.73;;
84125;SDS011;74222;58.696;11.254;2023-12-28T01:23:50;0.60;;;0.60;;
84125;SDS011;74222;58.696;11.254;2023-12-28T01:26:16;0.53;;;0.53;;
84125;SDS011;74222;58.696;11.254;2023-12-28T01:28:42;0.53;;;0.53;;
84125;SDS011;74222;58.696;11.254;2023-12-28T01:31:09;0.70;;;0.70;;
84125;SDS011;74222;58.696;11.254;2023-12-28T01:33:35;0.50;;;0.50;;
84125;SDS011;74222;58.696;11.254;2023-12-28T01:36:02;0.50;;;0.50;;
84125;SDS011;74222;58.696;11.254;2023-12-28T01:38:28;0.90;;;0.90;;
84125;SDS011;74222;58.696;11.254;2023-12-28T01:40:55;0.60;;;0.60;;
84125;SDS011;74222;58.696;11.254;2023-12-28T01:43:21;0.80;;;0.80;;
84125;SDS011;74222;58.696;11.254;2023-12-28T01:45:48;0.67;;;0.67;;
84125;SDS011;74222;58.696;11.254;2023-12-28T01:48:14;0.63;;;0.63;;
84125;SDS011;74222;58.696;11.254;2023-12-28T01:50:41;0.47;;;0.47;;
84125;SDS011;74222;58.696;11.254;2023-12-28T01:53:07;0.60;;;0.60;;
84125;SDS011;74222;58.696;11.254;2023-12-28T01:55:34;0.73;;;0.73;;
84125;SDS011;74222;58.696;11.254;2023-12-28T01:58:00;0.60;;;0.60;;
84125;SDS011;74222;58.696;11.254;2023-12-28T02:00:27;0.73;;;0.73;;
84125;SDS011;74222;58.696;11.254;2023-12-28T02:02:53;0.50;;;0.50;;
84125;SDS011;74222;58.696;11.254;2023-12-28T02:05:20;0.90;;;0.90;;
84125;SDS011;74222;58.696;11.254;2023-12-28T02:07:46;0.57;;;0.57;;
84125;SDS011;74222;58.696;11.254;2023-12-28T02:10:12;0.50;;;0.50;;
84125;SDS011;74222;58.696;11.254;2023-12-28T02:12:39;0.70;;;0.70;;
84125;SDS011;74222;58.696;11.254;2023-12-28T02:15:06;0.70;;;0.70;;
84125;SDS011;74222;58.696;11.254;2023-12-28T02:17:33;0.60;;;0.60;;
84125;SDS011;74222;58.696;11.254;2023-12-28T02:19:59;0.50;;;0.50;;
84125;SDS011;74222;58.696;11.254;2023-12-28T02:22:26;0.63;;;0.63;;
84125;SDS011;74222;58.696;11.254;2023-12-28T02:24:56;0.90;;;0.90;;
84125;SDS011;74222;58.696;11.254;2023-12-28T02:27:22;0.67;;;0.67;;
84125;SDS011;74222;58.696;11.254;2023-12-28T02:29:49;0.50;;;0.50;;
84125;SDS011;74222;58.696;11.254;2023-12-28T02:32:15;0.50;;;0.50;;
84125;SDS011;74222;58.696;11.254;2023-12-28T02:34:42;0.50;;;0.50;;
84125;SDS011;74222;58.696;11.254;2023-12-28T02:37:08;0.60;;;0.60;;
84125;SDS011;74222;58.696;11.254;2023-12-28T02:39:34;0.60;;;0.60;;
84125;SDS011;74222;58.696;11.254;2023-12-28T02:42:01;0.60;;;0.60;;
84125;SDS011;74222;58.696;11.254;2023-12-28T02:44:27;0.67;;;0.67;;
84125;SDS011;74222;58.696;11.254;2023-12-28T02:46:54;0.40;;;0.40;;
84125;SDS011;74222;58.696;11.254;2023-12-28T02:49:20;0.50;;;0.50;;
84125;SDS011;74222;58.696;11.254;2023-12-28T02:51:47;0.57;;;0.57;;
84125;SDS011;74222;58.696;11.254;2023-12-28T02:54:13;0.50;;;0.50;;
84125;SDS011;74222;58.696;11.254;2023-12-28T02:56:40;0.70;;;0.70;;
84125;SDS011;74222;58.696;11.254;2023-12-28T02:59:06;0.80;;;0.80;;
84125;SDS011;74222;58.696;11.254;2023-12-28T03:01:33;0.60;;;0.60;;
84125;SDS011;74222;58.696;11.254;2023-12-28T03:03:59;0.60;;;0.60;;
84125;SDS011;74222;58.696;11.254;2023-12-28T03:06:26;0.60;;;0.60;;
84125;SDS011;74222;58.696;11.254;2023-12-28T03:08:52;0.53;;;0.53;;
84125;SDS011;74222;58.696;11.254;2023-12-28T03:11:19;0.47;;;0.47;;
84125;SDS011;74222;58.696;11.254;2023-12-28T03:13:45;0.60;;;0.60;;
84125;SDS011;74222;58.696;11.254;2023-12-28T03:16:13;0.50;;;0.50;;
84125;SDS011;74222;58.696;11.254;2023-12-28T03:18:39;0.50;;;0.50;;
84125;SDS011;74222;58.696;11.254;2023-12-28T03:21:05;0.47;;;0.47;;
84125;SDS011;74222;58.696;11.254;2023-12-28T03:23:32;0.50;;;0.50;;
84125;SDS011;74222;58.696;11.254;2023-12-28T03:26:00;0.77;;;0.77;;
84125;SDS011;74222;58.696;11.254;2023-12-28T03:28:25;0.47;;;0.47;;
84125;SDS011;74222;58.696;11.254;2023-12-28T03:30:51;0.57;;;0.57;;
84125;SDS011;74222;58.696;11.254;2023-12-28T03:33:18;0.40;;;0.40;;
84125;SDS011;74222;58.696;11.254;2023-12-28T03:35:44;0.57;;;0.57;;
84125;SDS011;74222;58.696;11.254;2023-12-28T03:38:11;0.60;;;0.60;;
84125;SDS011;74222;58.696;11.254;2023-12-28T03:40:37;0.70;;;0.70;;
84125;SDS011;74222;58.696;11.254;2023-12-28T03:43:04;0.80;;;0.80;;
84125;SDS011;74222;58.696;11.254;2023-12-28T03:45:30;0.60;;;0.60;;
84125;SDS011;74222;58.696;11.254;2023-12-28T03:47:57;0.90;;;0.90;;
84125;SDS011;74222;58.696;11.254;2023-12-28T03:50:23;0.60;;;0.60;;
84125;SDS011;74222;58.696;11.254;2023-12-28T03:52:50;0.60;;;0.60;;
84125;SDS011;74222;58.696;11.254;2023-12-28T03:55:16;0.67;;;0.67;;
84125;SDS011;74222;58.696;11.254;2023-12-28T03:57:43;0.60;;;0.60;;
84125;SDS011;74222;58.696;11.254;2023-12-28T04:00:09;0.67;;;0.67;;
84125;SDS011;74222;58.696;11.254;2023-12-28T04:02:36;0.40;;;0.40;;
84125;SDS011;74222;58.696;11.254;2023-12-28T04:05:03;0.60;;;0.60;;
84125;SDS011;74222;58.696;11.254;2023-12-28T04:07:29;0.60;;;0.60;;
84125;SDS011;74222;58.696;11.254;2023-12-28T04:09:56;0.37;;;0.37;;
84125;SDS011;74222;58.696;11.254;2023-12-28T04:12:22;0.70;;;0.70;;
84125;SDS011;74222;58.696;11.254;2023-12-28T04:14:49;0.60;;;0.60;;
84125;SDS011;74222;58.696;11.254;2023-12-28T04:17:15;0.50;;;0.50;;
84125;SDS011;74222;58.696;11.254;2023-12-28T04:19:42;0.60;;;0.60;;
84125;SDS011;74222;58.696;11.254;2023-12-28T04:22:08;0.57;;;0.57;;
84125;SDS011;74222;58.696;11.254;2023-12-28T04:24:36;0.50;;;0.50;;
84125;SDS011;74222;58.696;11.254;2023-12-28T04:27:01;0.50;;;0.50;;
84125;SDS011;74222;58.696;11.254;2023-12-28T04:29:28;0.50;;;0.50;;
84125;SDS011;74222;58.696;11.254;2023-12-28T04:31:55;0.60;;;0.60;;
84125;SDS011;74222;58.696;11.254;2023-12-28T04:34:21;0.67;;;0.67;;
84125;SDS011;74222;58.696;11.254;2023-12-28T04:36:48;0.60;;;0.60;;
84125;SDS011;74222;58.696;11.254;2023-12-28T04:39:14;0.50;;;0.50;;
84125;SDS011;74222;58.696;11.254;2023-12-28T04:41:41;0.50;;;0.50;;
84125;SDS011;74222;58.696;11.254;2023-12-28T04:44:07;0.60;;;0.57;;
84125;SDS011;74222;58.696;11.254;2023-12-28T04:46:37;0.50;;;0.50;;
84125;SDS011;74222;58.696;11.254;2023-12-28T04:49:00;0.60;;;0.60;;
84125;SDS011;74222;58.696;11.254;2023-12-28T04:51:26;0.63;;;0.63;;
84125;SDS011;74222;58.696;11.254;2023-12-28T04:53:53;0.60;;;0.60;;
84125;SDS011;74222;58.696;11.254;2023-12-28T04:56:19;0.47;;;0.47;;
84125;SDS011;74222;58.696;11.254;2023-12-28T04:58:46;0.50;;;0.50;;
84125;SDS011;74222;58.696;11.254;2023-12-28T05:01:12;0.30;;;0.30;;
84125;SDS011;74222;58.696;11.254;2023-12-28T05:03:39;0.60;;;0.60;;
84125;SDS011;74222;58.696;11.254;2023-12-28T05:06:05;0.40;;;0.40;;
84125;SDS011;74222;58.696;11.254;2023-12-28T05:08:32;0.60;;;0.60;;
84125;SDS011;74222;58.696;11.254;2023-12-28T05:10:58;0.40;;;0.40;;
84125;SDS011;74222;58.696;11.254;2023-12-28T05:13:25;0.60;;;0.60;;
84125;SDS011;74222;58.696;11.254;2023-12-28T05:15:51;0.60;;;0.60;;
84125;SDS011;74222;58.696;11.254;2023-12-28T05:18:18;0.40;;;0.40;;
84125;SDS011;74222;58.696;11.254;2023-12-28T05:20:44;0.60;;;0.60;;
84125;SDS011;74222;58.696;11.254;2023-12-28T05:23:11;0.50;;;0.50;;
84125;SDS011;74222;58.696;11.254;2023-12-28T05:25:37;0.57;;;0.57;;
84125;SDS011;74222;58.696;11.254;2023-12-28T05:28:04;0.70;;;0.70;;
84125;SDS011;74222;58.696;11.254;2023-12-28T05:30:30;0.53;;;0.53;;
84125;SDS011;74222;58.696;11.254;2023-12-28T05:32:57;0.57;;;0.57;;
84125;SDS011;74222;58.696;11.254;2023-12-28T05:35:23;0.57;;;0.57;;
84125;SDS011;74222;58.696;11.254;2023-12-28T05:37:50;0.60;;;0.60;;
84125;SDS011;74222;58.696;11.254;2023-12-28T05:40:16;0.40;;;0.40;;
84125;SDS011;74222;58.696;11.254;2023-12-28T05:42:43;0.67;;;0.67;;
84125;SDS011;74222;58.696;11.254;2023-12-28T05:45:09;0.60;;;0.40;;
84125;SDS011;74222;58.696;11.254;2023-12-28T05:47:36;0.30;;;0.30;;
84125;SDS011;74222;58.696;11.254;2023-12-28T05:50:03;0.50;;;0.50;;
84125;SDS011;74222;58.696;11.254;2023-12-28T05:52:29;0.50;;;0.50;;
84125;SDS011;74222;58.696;11.254;2023-12-28T05:54:56;0.40;;;0.40;;
84125;SDS011;74222;58.696;11.254;2023-12-28T05:57:22;0.40;;;0.40;;
84125;SDS011;74222;58.696;11.254;2023-12-28T05:59:49;0.40;;;0.40;;
84125;SDS011;74222;58.696;11.254;2023-12-28T06:02:15;0.60;;;0.60;;
84125;SDS011;74222;58.696;11.254;2023-12-28T06:04:42;0.47;;;0.47;;
84125;SDS011;74222;58.696;11.254;2023-12-28T06:07:08;0.60;;;0.60;;
84125;SDS011;74222;58.696;11.254;2023-12-28T06:09:35;0.40;;;0.40;;
84125;SDS011;74222;58.696;11.254;2023-12-28T06:12:01;0.60;;;0.60;;
84125;SDS011;74222;58.696;11.254;2023-12-28T06:14:28;0.40;;;0.40;;
84125;SDS011;74222;58.696;11.254;2023-12-28T06:16:54;0.47;;;0.47;;
84125;SDS011;74222;58.696;11.254;2023-12-28T06:19:21;0.50;;;0.50;;
84125;SDS011;74222;58.696;11.254;2023-12-28T06:21:49;0.60;;;0.60;;
84125;SDS011;74222;58.696;11.254;2023-12-28T06:24:15;0.70;;;0.70;;
84125;SDS011;74222;58.696;11.254;2023-12-28T06:26:41;0.40;;;0.40;;
84125;SDS011;74222;58.696;11.254;2023-12-28T06:29:09;0.40;;;0.40;;
84125;SDS011;74222;58.696;11.254;2023-12-28T06:31:35;0.50;;;0.50;;
84125;SDS011;74222;58.696;11.254;2023-12-28T06:34:02;0.63;;;0.63;;
84125;SDS011;74222;58.696;11.254;2023-12-28T06:36:29;0.50;;;0.50;;
84125;SDS011;74222;58.696;11.254;2023-12-28T06:38:56;0.40;;;0.40;;
84125;SDS011;74222;58.696;11.254;2023-12-28T06:41:22;0.60;;;0.60;;
84125;SDS011;74222;58.696;11.254;2023-12-28T06:43:48;0.40;;;0.40;;
84125;SDS011;74222;58.696;11.254;2023-12-28T06:46:15;0.60;;;0.60;;
84125;SDS011;74222;58.696;11.254;2023-12-28T06:48:41;0.57;;;0.57;;
84125;SDS011;74222;58.696;11.254;2023-12-28T06:51:08;0.40;;;0.40;;
84125;SDS011;74222;58.696;11.254;2023-12-28T06:53:34;0.67;;;0.67;;
84125;SDS011;74222;58.696;11.254;2023-12-28T06:56:01;0.67;;;0.67;;
84125;SDS011;74222;58.696;11.254;2023-12-28T06:58:27;0.50;;;0.50;;
84125;SDS011;74222;58.696;11.254;2023-12-28T07:00:54;0.37;;;0.37;;
84125;SDS011;74222;58.696;11.254;2023-12-28T07:03:20;0.50;;;0.50;;
84125;SDS011;74222;58.696;11.254;2023-12-28T07:05:47;0.60;;;0.60;;
84125;SDS011;74222;58.696;11.254;2023-12-28T07:08:13;0.40;;;0.40;;
84125;SDS011;74222;58.696;11.254;2023-12-28T07:10:40;0.57;;;0.57;;
84125;SDS011;74222;58.696;11.254;2023-12-28T07:13:06;0.70;;;0.70;;
84125;SDS011;74222;58.696;11.254;2023-12-28T07:15:33;0.30;;;0.30;;
84125;SDS011;74222;58.696;11.254;2023-12-28T07:17:59;0.47;;;0.47;;
84125;SDS011;74222;58.696;11.254;2023-12-28T07:20:26;0.40;;;0.40;;
84125;SDS011;74222;58.696;11.254;2023-12-28T07:22:52;0.60;;;0.60;;
84125;SDS011;74222;58.696;11.254;2023-12-28T07:25:19;0.50;;;0.50;;
84125;SDS011;74222;58.696;11.254;2023-12-28T07:27:45;0.60;;;0.60;;
84125;SDS011;74222;58.696;11.254;2023-12-28T07:30:12;0.60;;;0.60;;
84125;SDS011;74222;58.696;11.254;2023-12-28T07:32:38;0.50;;;0.50;;
84125;SDS011;74222;58.696;11.254;2023-12-28T07:35:05;0.50;;;0.50;;
84125;SDS011;74222;58.696;11.254;2023-12-28T07:37:32;0.50;;;0.50;;
84125;SDS011;74222;58.696;11.254;2023-12-28T07:39:58;0.53;;;0.53;;
84125;SDS011;74222;58.696;11.254;2023-12-28T07:42:25;0.83;;;0.83;;
84125;SDS011;74222;58.696;11.254;2023-12-28T07:44:51;0.60;;;0.60;;
84125;SDS011;74222;58.696;11.254;2023-12-28T07:47:18;0.60;;;0.60;;
84125;SDS011;74222;58.696;11.254;2023-12-28T07:49:44;0.70;;;0.70;;
84125;SDS011;74222;58.696;11.254;2023-12-28T07:52:11;0.57;;;0.57;;
84125;SDS011;74222;58.696;11.254;2023-12-28T07:54:37;0.70;;;0.70;;
84125;SDS011;74222;58.696;11.254;2023-12-28T07:57:04;0.63;;;0.63;;
84125;SDS011;74222;58.696;11.254;2023-12-28T07:59:31;0.50;;;0.50;;
84125;SDS011;74222;58.696;11.254;2023-12-28T08:01:57;0.80;;;0.80;;
84125;SDS011;74222;58.696;11.254;2023-12-28T08:04:24;0.50;;;0.50;;
84125;SDS011;74222;58.696;11.254;2023-12-28T08:06:50;0.60;;;0.60;;
84125;SDS011;74222;58.696;11.254;2023-12-28T08:09:16;0.80;;;0.80;;
84125;SDS011;74222;58.696;11.254;2023-12-28T08:11:43;0.50;;;0.50;;
84125;SDS011;74222;58.696;11.254;2023-12-28T08:14:09;0.90;;;0.70;;
84125;SDS011;74222;58.696;11.254;2023-12-28T08:16:36;0.77;;;0.53;;
84125;SDS011;74222;58.696;11.254;2023-12-28T08:19:02;0.67;;;0.67;;
84125;SDS011;74222;58.696;11.254;2023-12-28T08:21:29;0.97;;;0.80;;
84125;SDS011;74222;58.696;11.254;2023-12-28T08:23:56;0.47;;;0.40;;
84125;SDS011;74222;58.696;11.254;2023-12-28T08:26:22;0.87;;;0.80;;
84125;SDS011;74222;58.696;11.254;2023-12-28T08:28:48;1.13;;;0.80;;
84125;SDS011;74222;58.696;11.254;2023-12-28T08:31:15;0.73;;;0.73;;
84125;SDS011;74222;58.696;11.254;2023-12-28T08:33:41;0.80;;;0.80;;
84125;SDS011;74222;58.696;11.254;2023-12-28T08:36:08;0.83;;;0.83;;
84125;SDS011;74222;58.696;11.254;2023-12-28T08:38:35;0.90;;;0.67;;
84125;SDS011;74222;58.696;11.254;2023-12-28T08:41:01;0.60;;;0.60;;
84125;SDS011;74222;58.696;11.254;2023-12-28T08:43:28;0.80;;;0.80;;
84125;SDS011;74222;58.696;11.254;2023-12-28T08:45:54;0.77;;;0.70;;
84125;SDS011;74222;58.696;11.254;2023-12-28T08:48:21;1.60;;;0.80;;
84125;SDS011;74222;58.696;11.254;2023-12-28T08:50:48;2.37;;;1.30;;
84125;SDS011;74222;58.696;11.254;2023-12-28T08:53:14;6.90;;;2.40;;
84125;SDS011;74222;58.696;11.254;2023-12-28T08:55:40;12.07;;;3.77;;
84125;SDS011;74222;58.696;11.254;2023-12-28T08:58:07;10.50;;;3.13;;
84125;SDS011;74222;58.696;11.254;2023-12-28T09:00:33;7.30;;;3.40;;
84125;SDS011;74222;58.696;11.254;2023-12-28T09:03:00;8.07;;;2.43;;
84125;SDS011;74222;58.696;11.254;2023-12-28T09:05:26;10.43;;;2.03;;
84125;SDS011;74222;58.696;11.254;2023-12-28T09:07:53;9.77;;;2.50;;
84125;SDS011;74222;58.696;11.254;2023-12-28T09:10:19;4.57;;;1.87;;
84125;SDS011;74222;58.696;11.254;2023-12-28T09:12:46;7.03;;;1.90;;
84125;SDS011;74222;58.696;11.254;2023-12-28T09:15:12;4.70;;;1.53;;
84125;SDS011;74222;58.696;11.254;2023-12-28T09:17:39;2.93;;;1.30;;
84125;SDS011;74222;58.696;11.254;2023-12-28T09:20:05;4.03;;;1.30;;
84125;SDS011;74222;58.696;11.254;2023-12-28T09:22:32;4.60;;;1.40;;
84125;SDS011;74222;58.696;11.254;2023-12-28T09:24:59;1.57;;;1.00;;
84125;SDS011;74222;58.696;11.254;2023-12-28T09:27:25;2.23;;;1.20;;
84125;SDS011;74222;58.696;11.254;2023-12-28T09:29:52;2.47;;;1.13;;
84125;SDS011;74222;58.696;11.254;2023-12-28T09:32:18;3.10;;;1.07;;
84125;SDS011;74222;58.696;11.254;2023-12-28T09:34:45;5.10;;;1.10;;
84125;SDS011;74222;58.696;11.254;2023-12-28T09:37:11;4.17;;;1.30;;
84125;SDS011;74222;58.696;11.254;2023-12-28T09:39:38;0.80;;;0.70;;
84125;SDS011;74222;58.696;11.254;2023-12-28T09:42:05;0.87;;;0.60;;
84125;SDS011;74222;58.696;11.254;2023-12-28T09:44:31;1.70;;;0.80;;
84125;SDS011;74222;58.696;11.254;2023-12-28T09:46:58;0.87;;;0.77;;
84125;SDS011;74222;58.696;11.254;2023-12-28T09:49:24;1.47;;;0.90;;
84125;SDS011;74222;58.696;11.254;2023-12-28T09:51:51;1.57;;;0.70;;
84125;SDS011;74222;58.696;11.254;2023-12-28T09:54:17;1.60;;;1.00;;
84125;SDS011;74222;58.696;11.254;2023-12-28T09:56:44;1.57;;;0.50;;
84125;SDS011;74222;58.696;11.254;2023-12-28T09:59:10;1.50;;;0.90;;
84125;SDS011;74222;58.696;11.254;2023-12-28T10:01:37;1.20;;;0.60;;
84125;SDS011;74222;58.696;11.254;2023-12-28T10:04:03;3.80;;;0.60;;
84125;SDS011;74222;58.696;11.254;2023-12-28T10:06:30;0.77;;;0.50;;
84125;SDS011;74222;58.696;11.254;2023-12-28T10:08:56;0.67;;;0.67;;
84125;SDS011;74222;58.696;11.254;2023-12-28T10:11:23;0.67;;;0.67;;
84125;SDS011;74222;58.696;11.254;2023-12-28T10:13:49;0.70;;;0.50;;
84125;SDS011;74222;58.696;11.254;2023-12-28T10:16:16;3.33;;;0.80;;
84125;SDS011;74222;58.696;11.254;2023-12-28T10:18:42;1.60;;;0.50;;
84125;SDS011;74222;58.696;11.254;2023-12-28T10:21:09;0.80;;;0.50;;
84125;SDS011;74222;58.696;11.254;2023-12-28T10:23:35;0.70;;;0.70;;
84125;SDS011;74222;58.696;11.254;2023-12-28T10:26:02;2.17;;;0.80;;
84125;SDS011;74222;58.696;11.254;2023-12-28T10:28:30;0.70;;;0.70;;
84125;SDS011;74222;58.696;11.254;2023-12-28T10:30:59;1.60;;;0.50;;
84125;SDS011;74222;58.696;11.254;2023-12-28T10:33:25;1.23;;;0.60;;
84125;SDS011;74222;58.696;11.254;2023-12-28T10:35:52;0.50;;;0.50;;
84125;SDS011;74222;58.696;11.254;2023-12-28T10:38:19;1.07;;;0.53;;
84125;SDS011;74222;58.696;11.254;2023-12-28T10:40:45;2.50;;;0.60;;
84125;SDS011;74222;58.696;11.254;2023-12-28T10:43:14;1.43;;;0.60;;
84125;SDS011;74222;58.696;11.254;2023-12-28T10:45:39;0.70;;;0.50;;
84125;SDS011;74222;58.696;11.254;2023-12-28T10:48:05;4.53;;;0.80;;
84125;SDS011;74222;58.696;11.254;2023-12-28T10:50:38;2.90;;;0.70;;
84125;SDS011;74222;58.696;11.254;2023-12-28T10:53:21;0.50;;;0.43;;
84125;SDS011;74222;58.696;11.254;2023-12-28T10:56:10;2.23;;;0.50;;
84125;SDS011;74222;58.696;11.254;2023-12-28T10:58:44;2.07;;;0.57;;
84125;SDS011;74222;58.696;11.254;2023-12-28T11:01:09;0.50;;;0.40;;
84125;SDS011;74222;58.696;11.254;2023-12-28T11:03:37;1.40;;;0.40;;
84125;SDS011;74222;58.696;11.254;2023-12-28T11:06:02;0.80;;;0.80;;
84125;SDS011;74222;58.696;11.254;2023-12-28T11:08:29;0.57;;;0.57;;
84125;SDS011;74222;58.696;11.254;2023-12-28T11:10:56;1.30;;;0.60;;
84125;SDS011;74222;58.696;11.254;2023-12-28T11:13:22;1.27;;;0.70;;
84125;SDS011;74222;58.696;11.254;2023-12-28T11:15:49;2.83;;;0.40;;
84125;SDS011;74222;58.696;11.254;2023-12-28T11:18:15;3.77;;;0.67;;
84125;SDS011;74222;58.696;11.254;2023-12-28T11:20:42;0.83;;;0.80;;
84125;SDS011;74222;58.696;11.254;2023-12-28T11:23:08;1.90;;;0.80;;
84125;SDS011;74222;58.696;11.254;2023-12-28T11:25:34;1.17;;;0.57;;
84125;SDS011;74222;58.696;11.254;2023-12-28T11:28:08;0.77;;;0.77;;
84125;SDS011;74222;58.696;11.254;2023-12-28T11:30:27;1.90;;;0.60;;
84125;SDS011;74222;58.696;11.254;2023-12-28T11:32:56;4.50;;;0.67;;
84125;SDS011;74222;58.696;11.254;2023-12-28T11:35:22;4.80;;;0.90;;
84125;SDS011;74222;58.696;11.254;2023-12-28T11:37:51;1.23;;;0.90;;
84125;SDS011;74222;58.696;11.254;2023-12-28T11:40:16;1.30;;;0.53;;
84125;SDS011;74222;58.696;11.254;2023-12-28T11:42:47;1.37;;;0.50;;
84125;SDS011;74222;58.696;11.254;2023-12-28T11:45:15;0.50;;;0.50;;
84125;SDS011;74222;58.696;11.254;2023-12-28T11:47:41;0.40;;;0.40;;
84125;SDS011;74222;58.696;11.254;2023-12-28T11:50:08;0.80;;;0.80;;
84125;SDS011;74222;58.696;11.254;2023-12-28T11:52:35;0.60;;;0.60;;
84125;SDS011;74222;58.696;11.254;2023-12-28T11:55:02;0.97;;;0.60;;
84125;SDS011;74222;58.696;11.254;2023-12-28T11:57:28;1.20;;;0.50;;
84125;SDS011;74222;58.696;11.254;2023-12-28T11:59:56;0.90;;;0.90;;
84125;SDS011;74222;58.696;11.254;2023-12-28T12:02:21;0.60;;;0.60;;
84125;SDS011;74222;58.696;11.254;2023-12-28T12:04:48;0.60;;;0.60;;
84125;SDS011;74222;58.696;11.254;2023-12-28T12:07:14;0.70;;;0.70;;
84125;SDS011;74222;58.696;11.254;2023-12-28T12:09:41;0.60;;;0.60;;
84125;SDS011;74222;58.696;11.254;2023-12-28T12:12:07;0.73;;;0.73;;
84125;SDS011;74222;58.696;11.254;2023-12-28T12:14:34;0.30;;;0.30;;
84125;SDS011;74222;58.696;11.254;2023-12-28T12:17:00;0.37;;;0.37;;
84125;SDS011;74222;58.696;11.254;2023-12-28T12:19:27;0.73;;;0.50;;
84125;SDS011;74222;58.696;11.254;2023-12-28T12:21:53;0.63;;;0.63;;
84125;SDS011;74222;58.696;11.254;2023-12-28T12:24:20;0.53;;;0.53;;
84125;SDS011;74222;58.696;11.254;2023-12-28T12:26:46;0.40;;;0.40;;
84125;SDS011;74222;58.696;11.254;2023-12-28T12:29:13;0.70;;;0.70;;
84125;SDS011;74222;58.696;11.254;2023-12-28T12:31:40;0.60;;;0.60;;
84125;SDS011;74222;58.696;11.254;2023-12-28T12:34:07;1.00;;;0.60;;
84125;SDS011;74222;58.696;11.254;2023-12-28T12:36:33;0.70;;;0.70;;
84125;SDS011;74222;58.696;11.254;2023-12-28T12:38:59;1.47;;;0.60;;
84125;SDS011;74222;58.696;11.254;2023-12-28T12:41:26;1.77;;;0.60;;
84125;SDS011;74222;58.696;11.254;2023-12-28T12:43:52;0.53;;;0.53;;
84125;SDS011;74222;58.696;11.254;2023-12-28T12:46:19;1.23;;;0.50;;
84125;SDS011;74222;58.696;11.254;2023-12-28T12:48:53;0.73;;;0.50;;
84125;SDS011;74222;58.696;11.254;2023-12-28T12:51:12;0.60;;;0.50;;
84125;SDS011;74222;58.696;11.254;2023-12-28T12:53:38;0.50;;;0.50;;
84125;SDS011;74222;58.696;11.254;2023-12-28T12:56:05;0.60;;;0.60;;
84125;SDS011;74222;58.696;11.254;2023-12-28T12:58:31;2.60;;;0.60;;
84125;SDS011;74222;58.696;11.254;2023-12-28T13:00:58;1.37;;;0.60;;
84125;SDS011;74222;58.696;11.254;2023-12-28T13:03:28;0.73;;;0.73;;
84125;SDS011;74222;58.696;11.254;2023-12-28T13:05:54;0.57;;;0.57;;
84125;SDS011;74222;58.696;11.254;2023-12-28T13:08:21;0.40;;;0.40;;
84125;SDS011;74222;58.696;11.254;2023-12-28T13:10:47;1.00;;;0.60;;
84125;SDS011;74222;58.696;11.254;2023-12-28T13:13:14;0.43;;;0.43;;
84125;SDS011;74222;58.696;11.254;2023-12-28T13:15:40;0.67;;;0.60;;
84125;SDS011;74222;58.696;11.254;2023-12-28T13:18:07;0.73;;;0.70;;
84125;SDS011;74222;58.696;11.254;2023-12-28T13:20:33;0.40;;;0.40;;
84125;SDS011;74222;58.696;11.254;2023-12-28T13:23:00;2.17;;;0.47;;
84125;SDS011;74222;58.696;11.254;2023-12-28T13:25:26;1.70;;;0.50;;
84125;SDS011;74222;58.696;11.254;2023-12-28T13:27:53;2.20;;;0.40;;
84125;SDS011;74222;58.696;11.254;2023-12-28T13:30:19;3.13;;;0.70;;
84125;SDS011;74222;58.696;11.254;2023-12-28T13:32:46;1.13;;;0.40;;
84125;SDS011;74222;58.696;11.254;2023-12-28T13:35:12;1.00;;;0.50;;
84125;SDS011;74222;58.696;11.254;2023-12-28T13:37:39;1.47;;;0.50;;
84125;SDS011;74222;58.696;11.254;2023-12-28T13:40:05;0.80;;;0.80;;
84125;SDS011;74222;58.696;11.254;2023-12-28T13:42:32;0.60;;;0.60;;
84125;SDS011;74222;58.696;11.254;2023-12-28T13:44:59;0.50;;;0.50;;
84125;SDS011;74222;58.696;11.254;2023-12-28T13:47:25;0.73;;;0.60;;
84125;SDS011;74222;58.696;11.254;2023-12-28T13:49:52;0.57;;;0.57;;
84125;SDS011;74222;58.696;11.254;2023-12-28T13:52:18;0.50;;;0.50;;
84125;SDS011;74222;58.696;11.254;2023-12-28T13:54:45;1.50;;;0.77;;
84125;SDS011;74222;58.696;11.254;2023-12-28T13:57:11;0.70;;;0.70;;
84125;SDS011;74222;58.696;11.254;2023-12-28T13:59:38;0.60;;;0.60;;
84125;SDS011;74222;58.696;11.254;2023-12-28T14:02:05;0.60;;;0.60;;
84125;SDS011;74222;58.696;11.254;2023-12-28T14:04:31;0.50;;;0.50;;
84125;SDS011;74222;58.696;11.254;2023-12-28T14:06:57;0.67;;;0.67;;
84125;SDS011;74222;58.696;11.254;2023-12-28T14:09:24;0.70;;;0.40;;
84125;SDS011;74222;58.696;11.254;2023-12-28T14:11:50;0.57;;;0.57;;
84125;SDS011;74222;58.696;11.254;2023-12-28T14:14:17;0.67;;;0.67;;
84125;SDS011;74222;58.696;11.254;2023-12-28T14:16:43;0.53;;;0.53;;
84125;SDS011;74222;58.696;11.254;2023-12-28T14:19:10;0.60;;;0.60;;
84125;SDS011;74222;58.696;11.254;2023-12-28T14:21:37;0.80;;;0.80;;
84125;SDS011;74222;58.696;11.254;2023-12-28T14:24:03;1.03;;;0.87;;
84125;SDS011;74222;58.696;11.254;2023-12-28T14:26:31;0.60;;;0.60;;
84125;SDS011;74222;58.696;11.254;2023-12-28T14:28:59;0.60;;;0.47;;